sensor_id;sensor_type;location;lat;lon;timestamp;temperature;humidity
14946;DHT22;7567;50.916;6.900;2022-07-06T00:01:56;16.10;1.40
14946;DHT22;7567;50.916;6.900;2022-07-06T00:04:22;16.10;1.00
14946;DHT22;7567;50.916;6.900;2022-07-06T00:06:48;16.10;50.80
14946;DHT22;7567;50.916;6.900;2022-07-06T00:09:14;16.00;70.30
14946;DHT22;7567;50.916;6.900;2022-07-06T00:11:40;16.00;99.90
14946;DHT22;7567;50.916;6.900;2022-07-06T00:14:06;15.80;1.00
14946;DHT22;7567;50.916;6.900;2022-07-06T00:16:33;15.80;1.00
14946;DHT22;7567;50.916;6.900;2022-07-06T00:18:59;15.80;20.30
14946;DHT22;7567;50.916;6.900;2022-07-06T00:21:25;15.60;1.00
14946;DHT22;7567;50.916;6.900;2022-07-06T00:23:51;15.70;1.00
14946;DHT22;7567;50.916;6.900;2022-07-06T00:26:18;15.70;1.00
14946;DHT22;7567;50.916;6.900;2022-07-06T00:28:44;15.60;1.00
14946;DHT22;7567;50.916;6.900;2022-07-06T00:31:10;15.60;1.00
14946;DHT22;7567;50.916;6.900;2022-07-06T00:33:36;15.50;99.90
14946;DHT22;7567;50.916;6.900;2022-07-06T00:36:03;15.50;99.90
14946;DHT22;7567;50.916;6.900;2022-07-06T00:38:29;15.50;99.90
14946;DHT22;7567;50.916;6.900;2022-07-06T00:40:55;15.40;99.90
14946;DHT22;7567;50.916;6.900;2022-07-06T00:43:21;15.30;71.90
14946;DHT22;7567;50.916;6.900;2022-07-06T00:45:47;15.20;1.00
14946;DHT22;7567;50.916;6.900;2022-07-06T00:48:13;15.10;1.00
14946;DHT22;7567;50.916;6.900;2022-07-06T00:50:39;15.10;99.90
14946;DHT22;7567;50.916;6.900;2022-07-06T00:53:07;15.10;1.00
14946;DHT22;7567;50.916;6.900;2022-07-06T00:55:36;15.00;1.00
14946;DHT22;7567;50.916;6.900;2022-07-06T00:58:05;15.00;99.90
14946;DHT22;7567;50.916;6.900;2022-07-06T01:00:32;14.80;1.00
14946;DHT22;7567;50.916;6.900;2022-07-06T01:02:58;14.80;1.00
14946;DHT22;7567;50.916;6.900;2022-07-06T01:05:24;14.80;1.00
14946;DHT22;7567;50.916;6.900;2022-07-06T01:07:52;14.80;1.00
14946;DHT22;7567;50.916;6.900;2022-07-06T01:10:20;14.80;99.90
14946;DHT22;7567;50.916;6.900;2022-07-06T01:12:47;14.60;1.00
14946;DHT22;7567;50.916;6.900;2022-07-06T01:15:22;14.60;1.00
14946;DHT22;7567;50.916;6.900;2022-07-06T01:17:48;14.60;1.00
14946;DHT22;7567;50.916;6.900;2022-07-06T01:20:22;14.50;99.90
14946;DHT22;7567;50.916;6.900;2022-07-06T01:22:49;14.50;41.20
14946;DHT22;7567;50.916;6.900;2022-07-06T01:25:16;14.40;1.00
14946;DHT22;7567;50.916;6.900;2022-07-06T01:27:43;14.40;99.90
14946;DHT22;7567;50.916;6.900;2022-07-06T01:30:12;14.30;1.00
14946;DHT22;7567;50.916;6.900;2022-07-06T01:32:38;14.30;99.90
14946;DHT22;7567;50.916;6.900;2022-07-06T01:35:06;14.30;99.90
14946;DHT22;7567;50.916;6.900;2022-07-06T01:37:33;14.30;31.60
14946;DHT22;7567;50.916;6.900;2022-07-06T01:39:59;14.30;99.90
14946;DHT22;7567;50.916;6.900;2022-07-06T01:42:26;14.30;99.90
14946;DHT22;7567;50.916;6.900;2022-07-06T01:44:52;14.20;1.00
14946;DHT22;7567;50.916;6.900;2022-07-06T01:47:18;14.20;1.00
14946;DHT22;7567;50.916;6.900;2022-07-06T01:49:44;14.20;99.90
14946;DHT22;7567;50.916;6.900;2022-07-06T01:52:10;14.20;99.90
14946;DHT22;7567;50.916;6.900;2022-07-06T01:54:36;14.10;99.90
14946;DHT22;7567;50.916;6.900;2022-07-06T01:57:03;14.10;1.00
14946;DHT22;7567;50.916;6.900;2022-07-06T01:59:29;14.00;1.00
14946;DHT22;7567;50.916;6.900;2022-07-06T02:01:55;14.10;1.00
14946;DHT22;7567;50.916;6.900;2022-07-06T02:04:21;14.00;1.00
14946;DHT22;7567;50.916;6.900;2022-07-06T02:06:47;14.00;1.00
14946;DHT22;7567;50.916;6.900;2022-07-06T02:09:13;14.00;1.00
14946;DHT22;7567;50.916;6.900;2022-07-06T02:11:39;14.00;1.00
14946;DHT22;7567;50.916;6.900;2022-07-06T02:14:05;14.00;1.00
14946;DHT22;7567;50.916;6.900;2022-07-06T02:16:31;13.90;1.00
14946;DHT22;7567;50.916;6.900;2022-07-06T02:18:57;13.90;1.00
14946;DHT22;7567;50.916;6.900;2022-07-06T02:21:23;13.90;1.00
14946;DHT22;7567;50.916;6.900;2022-07-06T02:23:49;13.80;99.90
14946;DHT22;7567;50.916;6.900;2022-07-06T02:26:15;13.80;1.00
14946;DHT22;7567;50.916;6.900;2022-07-06T02:28:41;13.70;1.00
14946;DHT22;7567;50.916;6.900;2022-07-06T02:31:07;13.70;1.00
14946;DHT22;7567;50.916;6.900;2022-07-06T02:33:33;13.70;99.90
14946;DHT22;7567;50.916;6.900;2022-07-06T02:35:58;13.70;1.00
14946;DHT22;7567;50.916;6.900;2022-07-06T02:38:24;13.60;1.00
14946;DHT22;7567;50.916;6.900;2022-07-06T02:40:50;13.50;1.00
14946;DHT22;7567;50.916;6.900;2022-07-06T02:43:16;13.50;99.90
14946;DHT22;7567;50.916;6.900;2022-07-06T02:45:43;13.60;99.90
14946;DHT22;7567;50.916;6.900;2022-07-06T02:48:09;13.50;1.00
14946;DHT22;7567;50.916;6.900;2022-07-06T02:50:35;13.50;1.00
14946;DHT22;7567;50.916;6.900;2022-07-06T02:53:01;13.40;1.00
14946;DHT22;7567;50.916;6.900;2022-07-06T02:55:27;13.40;1.00
14946;DHT22;7567;50.916;6.900;2022-07-06T02:57:53;13.40;1.00
14946;DHT22;7567;50.916;6.900;2022-07-06T03:00:19;13.30;1.00
14946;DHT22;7567;50.916;6.900;2022-07-06T03:02:45;13.20;1.00
14946;DHT22;7567;50.916;6.900;2022-07-06T03:05:11;13.10;1.00
14946;DHT22;7567;50.916;6.900;2022-07-06T03:07:37;13.10;1.00
14946;DHT22;7567;50.916;6.900;2022-07-06T03:10:03;13.00;1.00
14946;DHT22;7567;50.916;6.900;2022-07-06T03:12:29;13.00;99.90
14946;DHT22;7567;50.916;6.900;2022-07-06T03:14:55;12.80;1.00
14946;DHT22;7567;50.916;6.900;2022-07-06T03:17:21;12.80;99.90
14946;DHT22;7567;50.916;6.900;2022-07-06T03:19:47;12.80;99.90
14946;DHT22;7567;50.916;6.900;2022-07-06T03:22:13;12.70;99.90
14946;DHT22;7567;50.916;6.900;2022-07-06T03:24:39;12.70;99.90
14946;DHT22;7567;50.916;6.900;2022-07-06T03:27:05;12.60;1.00
14946;DHT22;7567;50.916;6.900;2022-07-06T03:29:31;12.50;1.00
14946;DHT22;7567;50.916;6.900;2022-07-06T03:31:57;12.40;1.00
14946;DHT22;7567;50.916;6.900;2022-07-06T03:34:23;12.40;1.00
14946;DHT22;7567;50.916;6.900;2022-07-06T03:36:49;12.30;1.00
14946;DHT22;7567;50.916;6.900;2022-07-06T03:39:15;12.30;1.00
14946;DHT22;7567;50.916;6.900;2022-07-06T03:41:41;12.30;1.00
14946;DHT22;7567;50.916;6.900;2022-07-06T03:44:07;12.30;1.00
14946;DHT22;7567;50.916;6.900;2022-07-06T03:46:32;12.30;1.00
14946;DHT22;7567;50.916;6.900;2022-07-06T03:48:58;12.30;1.00
14946;DHT22;7567;50.916;6.900;2022-07-06T03:51:24;12.30;1.00
14946;DHT22;7567;50.916;6.900;2022-07-06T03:53:50;12.30;1.00
14946;DHT22;7567;50.916;6.900;2022-07-06T03:56:16;12.20;1.00
14946;DHT22;7567;50.916;6.900;2022-07-06T03:58:59;12.20;1.00
14946;DHT22;7567;50.916;6.900;2022-07-06T04:01:25;12.10;1.00
14946;DHT22;7567;50.916;6.900;2022-07-06T04:03:51;12.10;1.00
14946;DHT22;7567;50.916;6.900;2022-07-06T04:06:17;12.20;1.00
14946;DHT22;7567;50.916;6.900;2022-07-06T04:08:44;12.20;1.00
14946;DHT22;7567;50.916;6.900;2022-07-06T04:11:10;12.30;1.00
14946;DHT22;7567;50.916;6.900;2022-07-06T04:13:36;12.30;1.00
14946;DHT22;7567;50.916;6.900;2022-07-06T04:16:03;12.30;1.00
14946;DHT22;7567;50.916;6.900;2022-07-06T04:18:29;12.30;1.00
14946;DHT22;7567;50.916;6.900;2022-07-06T04:20:54;12.30;1.00
14946;DHT22;7567;50.916;6.900;2022-07-06T04:23:23;12.30;1.00
14946;DHT22;7567;50.916;6.900;2022-07-06T04:25:49;12.30;1.00
14946;DHT22;7567;50.916;6.900;2022-07-06T04:28:15;12.30;1.00
14946;DHT22;7567;50.916;6.900;2022-07-06T04:30:41;12.40;1.00
14946;DHT22;7567;50.916;6.900;2022-07-06T04:33:07;12.40;1.00
14946;DHT22;7567;50.916;6.900;2022-07-06T04:35:33;12.40;1.00
14946;DHT22;7567;50.916;6.900;2022-07-06T04:37:59;12.50;1.00
14946;DHT22;7567;50.916;6.900;2022-07-06T04:40:26;12.60;1.00
14946;DHT22;7567;50.916;6.900;2022-07-06T04:42:52;12.60;1.00
14946;DHT22;7567;50.916;6.900;2022-07-06T04:45:18;12.70;1.00
14946;DHT22;7567;50.916;6.900;2022-07-06T04:47:44;12.70;99.90
14946;DHT22;7567;50.916;6.900;2022-07-06T04:50:11;12.80;1.00
14946;DHT22;7567;50.916;6.900;2022-07-06T04:52:37;12.80;1.00
14946;DHT22;7567;50.916;6.900;2022-07-06T04:55:04;12.90;1.00
14946;DHT22;7567;50.916;6.900;2022-07-06T04:57:32;13.00;1.00
14946;DHT22;7567;50.916;6.900;2022-07-06T04:59:58;13.00;1.00
14946;DHT22;7567;50.916;6.900;2022-07-06T05:02:24;13.00;99.90
14946;DHT22;7567;50.916;6.900;2022-07-06T05:04:50;13.00;99.90
14946;DHT22;7567;50.916;6.900;2022-07-06T05:07:16;13.00;1.00
14946;DHT22;7567;50.916;6.900;2022-07-06T05:09:42;13.10;99.90
14946;DHT22;7567;50.916;6.900;2022-07-06T05:12:09;13.20;99.90
14946;DHT22;7567;50.916;6.900;2022-07-06T05:14:35;13.20;1.00
14946;DHT22;7567;50.916;6.900;2022-07-06T05:17:02;13.30;99.90
14946;DHT22;7567;50.916;6.900;2022-07-06T05:19:28;13.30;99.90
14946;DHT22;7567;50.916;6.900;2022-07-06T05:21:54;13.30;99.90
14946;DHT22;7567;50.916;6.900;2022-07-06T05:24:20;13.40;99.90
14946;DHT22;7567;50.916;6.900;2022-07-06T05:26:47;13.40;99.90
14946;DHT22;7567;50.916;6.900;2022-07-06T05:29:13;13.40;1.00
14946;DHT22;7567;50.916;6.900;2022-07-06T05:31:39;13.50;99.90
14946;DHT22;7567;50.916;6.900;2022-07-06T05:34:05;13.50;99.90
14946;DHT22;7567;50.916;6.900;2022-07-06T05:36:31;13.50;99.90
14946;DHT22;7567;50.916;6.900;2022-07-06T05:38:56;13.70;12.50
14946;DHT22;7567;50.916;6.900;2022-07-06T05:41:22;13.70;99.90
14946;DHT22;7567;50.916;6.900;2022-07-06T05:43:48;13.80;99.90
14946;DHT22;7567;50.916;6.900;2022-07-06T05:46:14;13.90;1.00
14946;DHT22;7567;50.916;6.900;2022-07-06T05:48:40;14.00;1.00
14946;DHT22;7567;50.916;6.900;2022-07-06T05:51:25;14.10;11.60
14946;DHT22;7567;50.916;6.900;2022-07-06T05:53:51;14.10;49.40
14946;DHT22;7567;50.916;6.900;2022-07-06T05:56:17;14.30;1.00
14946;DHT22;7567;50.916;6.900;2022-07-06T05:58:43;14.40;99.90
14946;DHT22;7567;50.916;6.900;2022-07-06T06:01:09;14.50;1.00
14946;DHT22;7567;50.916;6.900;2022-07-06T06:03:36;14.60;85.60
14946;DHT22;7567;50.916;6.900;2022-07-06T06:06:02;14.60;99.90
14946;DHT22;7567;50.916;6.900;2022-07-06T06:08:28;14.70;99.90
14946;DHT22;7567;50.916;6.900;2022-07-06T06:10:54;14.70;1.00
14946;DHT22;7567;50.916;6.900;2022-07-06T06:13:20;14.80;99.90
14946;DHT22;7567;50.916;6.900;2022-07-06T06:15:46;14.90;99.90
14946;DHT22;7567;50.916;6.900;2022-07-06T06:18:12;15.00;1.00
14946;DHT22;7567;50.916;6.900;2022-07-06T06:20:38;15.10;1.00
14946;DHT22;7567;50.916;6.900;2022-07-06T06:23:04;15.30;1.00
14946;DHT22;7567;50.916;6.900;2022-07-06T06:25:35;15.50;1.00
14946;DHT22;7567;50.916;6.900;2022-07-06T06:28:03;15.60;1.00
14946;DHT22;7567;50.916;6.900;2022-07-06T06:30:29;15.60;1.00
14946;DHT22;7567;50.916;6.900;2022-07-06T06:33:18;15.70;1.00
14946;DHT22;7567;50.916;6.900;2022-07-06T06:35:49;15.80;99.90
14946;DHT22;7567;50.916;6.900;2022-07-06T06:38:16;15.90;99.90
14946;DHT22;7567;50.916;6.900;2022-07-06T06:40:42;16.00;31.80
14946;DHT22;7567;50.916;6.900;2022-07-06T06:43:09;16.20;31.70
14946;DHT22;7567;50.916;6.900;2022-07-06T06:45:35;16.20;1.00
14946;DHT22;7567;50.916;6.900;2022-07-06T06:48:02;16.40;1.00
14946;DHT22;7567;50.916;6.900;2022-07-06T06:50:30;16.50;1.00
14946;DHT22;7567;50.916;6.900;2022-07-06T06:52:59;16.60;1.00
14946;DHT22;7567;50.916;6.900;2022-07-06T06:55:26;16.80;1.00
14946;DHT22;7567;50.916;6.900;2022-07-06T06:57:55;17.00;1.00
14946;DHT22;7567;50.916;6.900;2022-07-06T07:00:29;17.10;1.00
14946;DHT22;7567;50.916;6.900;2022-07-06T07:02:55;17.30;1.00
14946;DHT22;7567;50.916;6.900;2022-07-06T07:05:21;17.40;1.00
14946;DHT22;7567;50.916;6.900;2022-07-06T07:07:47;17.30;1.00
14946;DHT22;7567;50.916;6.900;2022-07-06T07:10:13;17.30;1.00
14946;DHT22;7567;50.916;6.900;2022-07-06T07:12:46;17.30;1.00
14946;DHT22;7567;50.916;6.900;2022-07-06T07:15:13;17.20;1.00
14946;DHT22;7567;50.916;6.900;2022-07-06T07:17:40;17.30;1.00
14946;DHT22;7567;50.916;6.900;2022-07-06T07:20:06;17.40;1.00
14946;DHT22;7567;50.916;6.900;2022-07-06T07:22:32;17.40;1.00
14946;DHT22;7567;50.916;6.900;2022-07-06T07:25:00;17.50;1.00
14946;DHT22;7567;50.916;6.900;2022-07-06T07:27:27;17.50;1.00
14946;DHT22;7567;50.916;6.900;2022-07-06T07:29:53;17.60;1.00
14946;DHT22;7567;50.916;6.900;2022-07-06T07:32:19;17.70;1.00
14946;DHT22;7567;50.916;6.900;2022-07-06T07:34:45;17.80;1.00
14946;DHT22;7567;50.916;6.900;2022-07-06T07:37:11;18.20;1.00
14946;DHT22;7567;50.916;6.900;2022-07-06T07:39:37;18.30;1.00
14946;DHT22;7567;50.916;6.900;2022-07-06T07:42:05;18.10;1.00
14946;DHT22;7567;50.916;6.900;2022-07-06T07:44:31;18.00;1.00
14946;DHT22;7567;50.916;6.900;2022-07-06T07:46:57;18.00;1.00
14946;DHT22;7567;50.916;6.900;2022-07-06T07:49:23;18.20;1.00
14946;DHT22;7567;50.916;6.900;2022-07-06T07:51:49;18.30;1.00
14946;DHT22;7567;50.916;6.900;2022-07-06T07:54:16;18.40;1.00
14946;DHT22;7567;50.916;6.900;2022-07-06T07:56:42;18.30;1.00
14946;DHT22;7567;50.916;6.900;2022-07-06T07:59:08;18.30;1.00
14946;DHT22;7567;50.916;6.900;2022-07-06T08:01:34;18.10;1.00
14946;DHT22;7567;50.916;6.900;2022-07-06T08:04:00;18.00;1.00
14946;DHT22;7567;50.916;6.900;2022-07-06T08:06:26;17.90;1.00
14946;DHT22;7567;50.916;6.900;2022-07-06T08:08:52;17.70;1.00
14946;DHT22;7567;50.916;6.900;2022-07-06T08:11:18;17.60;1.00
14946;DHT22;7567;50.916;6.900;2022-07-06T08:13:44;17.50;1.00
14946;DHT22;7567;50.916;6.900;2022-07-06T08:16:10;17.40;1.00
14946;DHT22;7567;50.916;6.900;2022-07-06T08:18:37;17.40;1.00
14946;DHT22;7567;50.916;6.900;2022-07-06T08:21:03;17.50;1.00
14946;DHT22;7567;50.916;6.900;2022-07-06T08:23:29;17.50;1.00
14946;DHT22;7567;50.916;6.900;2022-07-06T08:25:55;17.60;1.00
14946;DHT22;7567;50.916;6.900;2022-07-06T08:28:21;17.60;1.00
14946;DHT22;7567;50.916;6.900;2022-07-06T08:30:48;17.60;1.00
14946;DHT22;7567;50.916;6.900;2022-07-06T08:33:15;17.60;1.00
14946;DHT22;7567;50.916;6.900;2022-07-06T08:35:41;17.50;1.00
14946;DHT22;7567;50.916;6.900;2022-07-06T08:38:08;17.50;1.00
14946;DHT22;7567;50.916;6.900;2022-07-06T08:40:38;17.50;1.00
14946;DHT22;7567;50.916;6.900;2022-07-06T08:43:04;17.50;1.00
14946;DHT22;7567;50.916;6.900;2022-07-06T08:45:30;17.60;1.00
14946;DHT22;7567;50.916;6.900;2022-07-06T08:48:04;17.60;1.00
14946;DHT22;7567;50.916;6.900;2022-07-06T08:50:35;17.60;1.00
14946;DHT22;7567;50.916;6.900;2022-07-06T08:53:01;17.60;1.00
14946;DHT22;7567;50.916;6.900;2022-07-06T08:55:28;17.60;1.00
14946;DHT22;7567;50.916;6.900;2022-07-06T08:57:55;17.60;1.00
14946;DHT22;7567;50.916;6.900;2022-07-06T09:00:23;17.60;1.00
14946;DHT22;7567;50.916;6.900;2022-07-06T09:02:51;17.60;1.00
14946;DHT22;7567;50.916;6.900;2022-07-06T09:05:21;17.70;1.00
14946;DHT22;7567;50.916;6.900;2022-07-06T09:07:52;17.80;1.00
14946;DHT22;7567;50.916;6.900;2022-07-06T09:10:19;17.90;1.00
14946;DHT22;7567;50.916;6.900;2022-07-06T09:12:46;17.90;1.00
14946;DHT22;7567;50.916;6.900;2022-07-06T09:15:12;17.80;1.00
14946;DHT22;7567;50.916;6.900;2022-07-06T09:17:39;17.80;1.00
14946;DHT22;7567;50.916;6.900;2022-07-06T09:20:13;17.80;1.00
14946;DHT22;7567;50.916;6.900;2022-07-06T09:22:39;17.80;1.00
14946;DHT22;7567;50.916;6.900;2022-07-06T09:25:16;17.80;1.00
14946;DHT22;7567;50.916;6.900;2022-07-06T09:35:04;17.90;1.00
14946;DHT22;7567;50.916;6.900;2022-07-06T09:37:30;17.90;1.00
14946;DHT22;7567;50.916;6.900;2022-07-06T09:39:59;18.00;1.00
14946;DHT22;7567;50.916;6.900;2022-07-06T09:42:27;18.00;1.00
14946;DHT22;7567;50.916;6.900;2022-07-06T09:44:53;18.10;1.00
14946;DHT22;7567;50.916;6.900;2022-07-06T09:47:20;18.20;1.00
14946;DHT22;7567;50.916;6.900;2022-07-06T09:49:46;18.20;1.00
14946;DHT22;7567;50.916;6.900;2022-07-06T09:52:16;18.20;1.00
14946;DHT22;7567;50.916;6.900;2022-07-06T09:54:48;18.20;1.00
14946;DHT22;7567;50.916;6.900;2022-07-06T09:57:14;18.30;1.00
14946;DHT22;7567;50.916;6.900;2022-07-06T09:59:40;18.40;1.00
14946;DHT22;7567;50.916;6.900;2022-07-06T10:02:07;18.50;1.00
14946;DHT22;7567;50.916;6.900;2022-07-06T10:04:34;18.60;1.00
14946;DHT22;7567;50.916;6.900;2022-07-06T10:07:02;18.70;1.00
14946;DHT22;7567;50.916;6.900;2022-07-06T10:09:29;18.80;1.00
14946;DHT22;7567;50.916;6.900;2022-07-06T10:11:58;18.90;1.00
14946;DHT22;7567;50.916;6.900;2022-07-06T10:14:27;19.10;1.00
14946;DHT22;7567;50.916;6.900;2022-07-06T10:16:58;19.30;1.00
14946;DHT22;7567;50.916;6.900;2022-07-06T10:19:27;19.30;1.00
14946;DHT22;7567;50.916;6.900;2022-07-06T10:21:59;19.30;1.00
14946;DHT22;7567;50.916;6.900;2022-07-06T10:24:29;19.50;1.00
14946;DHT22;7567;50.916;6.900;2022-07-06T10:27:16;19.80;1.00
14946;DHT22;7567;50.916;6.900;2022-07-06T10:29:48;20.30;1.00
14946;DHT22;7567;50.916;6.900;2022-07-06T10:32:22;20.50;1.00
14946;DHT22;7567;50.916;6.900;2022-07-06T10:34:57;20.80;1.00
14946;DHT22;7567;50.916;6.900;2022-07-06T10:37:28;20.80;1.00
14946;DHT22;7567;50.916;6.900;2022-07-06T10:40:04;21.00;1.00
14946;DHT22;7567;50.916;6.900;2022-07-06T10:43:02;21.30;1.00
14946;DHT22;7567;50.916;6.900;2022-07-06T10:50:55;20.70;1.00
14946;DHT22;7567;50.916;6.900;2022-07-06T10:53:33;20.90;1.00
14946;DHT22;7567;50.916;6.900;2022-07-06T10:56:10;21.00;1.00
14946;DHT22;7567;50.916;6.900;2022-07-06T10:58:47;20.90;1.00
14946;DHT22;7567;50.916;6.900;2022-07-06T11:01:18;21.00;1.00
14946;DHT22;7567;50.916;6.900;2022-07-06T11:06:22;21.40;1.00
14946;DHT22;7567;50.916;6.900;2022-07-06T11:09:01;21.70;1.00
14946;DHT22;7567;50.916;6.900;2022-07-06T11:14:14;22.10;1.00
14946;DHT22;7567;50.916;6.900;2022-07-06T11:19:32;22.00;1.00
14946;DHT22;7567;50.916;6.900;2022-07-06T11:22:07;22.00;1.00
14946;DHT22;7567;50.916;6.900;2022-07-06T11:24:41;22.20;1.00
14946;DHT22;7567;50.916;6.900;2022-07-06T11:27:11;22.40;1.00
14946;DHT22;7567;50.916;6.900;2022-07-06T11:29:56;22.40;1.00
14946;DHT22;7567;50.916;6.900;2022-07-06T11:32:58;22.90;1.00
14946;DHT22;7567;50.916;6.900;2022-07-06T11:35:31;23.40;1.00
14946;DHT22;7567;50.916;6.900;2022-07-06T11:38:24;23.50;1.00
14946;DHT22;7567;50.916;6.900;2022-07-06T11:41:08;23.50;1.00
14946;DHT22;7567;50.916;6.900;2022-07-06T11:44:11;23.50;1.00
14946;DHT22;7567;50.916;6.900;2022-07-06T11:46:47;23.10;1.00
14946;DHT22;7567;50.916;6.900;2022-07-06T11:49:22;22.70;1.00
14946;DHT22;7567;50.916;6.900;2022-07-06T11:51:52;22.60;1.00
14946;DHT22;7567;50.916;6.900;2022-07-06T11:54:25;22.40;1.00
14946;DHT22;7567;50.916;6.900;2022-07-06T11:56:58;22.40;1.00
14946;DHT22;7567;50.916;6.900;2022-07-06T11:59:29;22.50;1.00
14946;DHT22;7567;50.916;6.900;2022-07-06T12:04:39;22.10;1.00
14946;DHT22;7567;50.916;6.900;2022-07-06T12:07:12;22.00;1.00
14946;DHT22;7567;50.916;6.900;2022-07-06T12:09:44;22.10;1.00
14946;DHT22;7567;50.916;6.900;2022-07-06T12:12:15;22.10;1.00
14946;DHT22;7567;50.916;6.900;2022-07-06T12:14:45;22.10;1.00
14946;DHT22;7567;50.916;6.900;2022-07-06T12:17:15;22.20;1.00
14946;DHT22;7567;50.916;6.900;2022-07-06T12:19:46;22.20;1.00
14946;DHT22;7567;50.916;6.900;2022-07-06T12:22:26;22.20;1.00
14946;DHT22;7567;50.916;6.900;2022-07-06T12:24:55;22.70;1.00
14946;DHT22;7567;50.916;6.900;2022-07-06T12:27:33;22.90;1.00
14946;DHT22;7567;50.916;6.900;2022-07-06T12:30:13;22.90;1.00
14946;DHT22;7567;50.916;6.900;2022-07-06T12:35:37;22.70;1.00
14946;DHT22;7567;50.916;6.900;2022-07-06T12:38:20;22.30;1.00
14946;DHT22;7567;50.916;6.900;2022-07-06T12:40:54;22.20;1.00
14946;DHT22;7567;50.916;6.900;2022-07-06T12:43:41;22.10;1.00
14946;DHT22;7567;50.916;6.900;2022-07-06T12:46:30;22.20;1.00
14946;DHT22;7567;50.916;6.900;2022-07-06T12:49:02;22.30;99.90
14946;DHT22;7567;50.916;6.900;2022-07-06T12:52:04;22.30;1.00
14946;DHT22;7567;50.916;6.900;2022-07-06T12:54:49;22.40;99.90
14946;DHT22;7567;50.916;6.900;2022-07-06T12:57:36;22.50;99.90
14946;DHT22;7567;50.916;6.900;2022-07-06T13:00:16;22.40;99.90
14946;DHT22;7567;50.916;6.900;2022-07-06T13:02:50;22.40;99.90
14946;DHT22;7567;50.916;6.900;2022-07-06T13:05:30;22.40;99.90
14946;DHT22;7567;50.916;6.900;2022-07-06T13:08:13;22.40;99.90
14946;DHT22;7567;50.916;6.900;2022-07-06T13:10:50;22.40;99.90
14946;DHT22;7567;50.916;6.900;2022-07-06T13:13:21;22.50;99.90
14946;DHT22;7567;50.916;6.900;2022-07-06T13:15:51;22.40;1.00
14946;DHT22;7567;50.916;6.900;2022-07-06T13:18:22;22.60;1.00
14946;DHT22;7567;50.916;6.900;2022-07-06T13:20:53;22.60;99.90
14946;DHT22;7567;50.916;6.900;2022-07-06T13:23:28;22.80;99.90
14946;DHT22;7567;50.916;6.900;2022-07-06T13:26:03;22.80;99.90
14946;DHT22;7567;50.916;6.900;2022-07-06T13:28:39;22.90;99.90
14946;DHT22;7567;50.916;6.900;2022-07-06T13:31:16;23.00;99.90
14946;DHT22;7567;50.916;6.900;2022-07-06T13:33:53;23.20;99.90
14946;DHT22;7567;50.916;6.900;2022-07-06T13:36:35;23.10;99.90
14946;DHT22;7567;50.916;6.900;2022-07-06T13:39:12;23.40;99.90
14946;DHT22;7567;50.916;6.900;2022-07-06T13:41:43;23.40;99.90
14946;DHT22;7567;50.916;6.900;2022-07-06T13:44:20;23.40;99.90
14946;DHT22;7567;50.916;6.900;2022-07-06T13:47:03;23.40;99.90
14946;DHT22;7567;50.916;6.900;2022-07-06T13:49:35;23.40;99.90
14946;DHT22;7567;50.916;6.900;2022-07-06T13:52:05;23.40;99.90
14946;DHT22;7567;50.916;6.900;2022-07-06T13:54:37;23.30;99.90
14946;DHT22;7567;50.916;6.900;2022-07-06T13:57:06;23.50;99.90
14946;DHT22;7567;50.916;6.900;2022-07-06T13:59:46;23.60;99.90
14946;DHT22;7567;50.916;6.900;2022-07-06T14:02:15;23.50;99.90
14946;DHT22;7567;50.916;6.900;2022-07-06T14:04:45;23.30;99.90
14946;DHT22;7567;50.916;6.900;2022-07-06T14:07:13;23.60;99.90
14946;DHT22;7567;50.916;6.900;2022-07-06T14:09:44;23.90;99.90
14946;DHT22;7567;50.916;6.900;2022-07-06T14:12:21;24.20;99.90
14946;DHT22;7567;50.916;6.900;2022-07-06T14:15:01;24.50;99.90
14946;DHT22;7567;50.916;6.900;2022-07-06T14:17:47;24.30;99.90
14946;DHT22;7567;50.916;6.900;2022-07-06T14:20:26;24.40;99.90
14946;DHT22;7567;50.916;6.900;2022-07-06T14:23:01;24.60;99.90
14946;DHT22;7567;50.916;6.900;2022-07-06T14:25:43;24.50;99.90
14946;DHT22;7567;50.916;6.900;2022-07-06T14:28:26;24.50;99.90
14946;DHT22;7567;50.916;6.900;2022-07-06T14:31:10;24.60;99.90
14946;DHT22;7567;50.916;6.900;2022-07-06T14:33:46;24.40;99.90
14946;DHT22;7567;50.916;6.900;2022-07-06T14:36:17;24.40;99.90
14946;DHT22;7567;50.916;6.900;2022-07-06T14:38:47;24.50;99.90
14946;DHT22;7567;50.916;6.900;2022-07-06T14:41:17;24.30;99.90
14946;DHT22;7567;50.916;6.900;2022-07-06T14:43:49;24.30;99.90
14946;DHT22;7567;50.916;6.900;2022-07-06T14:46:22;24.20;99.90
14946;DHT22;7567;50.916;6.900;2022-07-06T14:48:52;23.70;99.90
14946;DHT22;7567;50.916;6.900;2022-07-06T14:51:25;23.60;99.90
14946;DHT22;7567;50.916;6.900;2022-07-06T14:53:58;23.70;99.90
14946;DHT22;7567;50.916;6.900;2022-07-06T14:56:36;24.00;99.90
14946;DHT22;7567;50.916;6.900;2022-07-06T14:59:31;24.00;99.90
14946;DHT22;7567;50.916;6.900;2022-07-06T15:02:08;24.20;99.90
14946;DHT22;7567;50.916;6.900;2022-07-06T15:04:46;24.50;99.90
14946;DHT22;7567;50.916;6.900;2022-07-06T15:07:26;24.50;99.90
14946;DHT22;7567;50.916;6.900;2022-07-06T15:10:06;24.60;99.90
14946;DHT22;7567;50.916;6.900;2022-07-06T15:12:47;24.50;99.90
14946;DHT22;7567;50.916;6.900;2022-07-06T15:15:31;24.70;99.90
14946;DHT22;7567;50.916;6.900;2022-07-06T15:18:04;24.80;99.90
14946;DHT22;7567;50.916;6.900;2022-07-06T15:20:37;24.70;99.90
14946;DHT22;7567;50.916;6.900;2022-07-06T15:23:12;24.70;99.90
14946;DHT22;7567;50.916;6.900;2022-07-06T15:25:58;24.90;99.90
14946;DHT22;7567;50.916;6.900;2022-07-06T15:28:40;24.70;99.90
14946;DHT22;7567;50.916;6.900;2022-07-06T15:31:38;24.80;99.90
14946;DHT22;7567;50.916;6.900;2022-07-06T15:34:19;24.80;99.90
14946;DHT22;7567;50.916;6.900;2022-07-06T15:36:52;24.90;99.90
14946;DHT22;7567;50.916;6.900;2022-07-06T15:39:24;24.90;99.90
14946;DHT22;7567;50.916;6.900;2022-07-06T15:41:59;24.80;99.90
14946;DHT22;7567;50.916;6.900;2022-07-06T15:44:40;24.70;99.90
14946;DHT22;7567;50.916;6.900;2022-07-06T15:47:15;24.80;99.90
14946;DHT22;7567;50.916;6.900;2022-07-06T15:49:48;24.70;99.90
14946;DHT22;7567;50.916;6.900;2022-07-06T15:52:28;24.60;99.90
14946;DHT22;7567;50.916;6.900;2022-07-06T15:55:01;24.60;99.90
14946;DHT22;7567;50.916;6.900;2022-07-06T15:57:30;24.40;99.90
14946;DHT22;7567;50.916;6.900;2022-07-06T16:00:02;24.50;99.90
14946;DHT22;7567;50.916;6.900;2022-07-06T16:02:38;24.60;99.90
14946;DHT22;7567;50.916;6.900;2022-07-06T16:05:13;24.50;99.90
14946;DHT22;7567;50.916;6.900;2022-07-06T16:07:44;24.70;99.90
14946;DHT22;7567;50.916;6.900;2022-07-06T16:10:15;24.50;99.90
14946;DHT22;7567;50.916;6.900;2022-07-06T16:12:44;24.40;99.90
14946;DHT22;7567;50.916;6.900;2022-07-06T16:15:15;24.60;99.90
14946;DHT22;7567;50.916;6.900;2022-07-06T16:17:52;24.80;99.90
14946;DHT22;7567;50.916;6.900;2022-07-06T16:20:31;24.70;99.90
14946;DHT22;7567;50.916;6.900;2022-07-06T16:23:09;24.70;99.90
14946;DHT22;7567;50.916;6.900;2022-07-06T16:25:51;24.60;99.90
14946;DHT22;7567;50.916;6.900;2022-07-06T16:28:25;24.70;99.90
14946;DHT22;7567;50.916;6.900;2022-07-06T16:30:53;24.70;99.90
14946;DHT22;7567;50.916;6.900;2022-07-06T16:33:22;24.60;99.90
14946;DHT22;7567;50.916;6.900;2022-07-06T16:35:51;24.50;99.90
14946;DHT22;7567;50.916;6.900;2022-07-06T16:38:23;24.50;99.90
14946;DHT22;7567;50.916;6.900;2022-07-06T16:41:15;24.60;99.90